Aeroporto :
LOGIN :

Iscrizione | Disclaimer

   EN    FR    IT 

 










Sommario :    VFR   VFR Marginale   IFR   IFR Intensivo   IFR Molto Intensivo
Visibilità : 
Base nubi : 
>= 8 km
>= 3000ft
5 / 8 km
1000 / 3000 ft
1500m / 5 km
500 / 1000 ft
800 / 1500m
200 / 500 ft
< 800m
< 200 ft
Simboli :   Temporali  Nebbia  Neve Forte  Precipitazioni Forti  Vento > 20 kt
SIGMETs :   Varie  Temporali  Ghiacco  Turbolenza  Onda orograficha  Ceneri Vulcaniche






- Altitudine del aeroporto : 2001 ft
- Codice IATA : MAD


LEMD - Madrid

ULTIMO METAR :
  • 151600Z 19004KT 150V230 9999 OVC034 12/06 Q1012 NOSIG

METARs OBSOLETI :
  • 151530Z 19007KT 100V220 9999 OVC034 12/06 Q1012 NOSIG
  • 151500Z 17007KT 130V210 9999 OVC034 12/06 Q1013 NOSIG
  • 151430Z 17006KT 120V200 9999 OVC034 12/06 Q1013 NOSIG
  • 151400Z 19006G18KT 150V250 9999 OVC035 12/06 Q1014 NOSIG
  • 151330Z 19007G20KT 110V220 9999 OVC035 12/06 Q1014 NOSIG

TAF TAF LEMD
Valido dal 15 a 12 ore il 16 a 18 ore UTC


151100Z 1512/1618 22010KT 9999 SCT035 TX16/1615Z TN03/1606Z
BECMG 1516/1518 VRB05KT
BECMG 1521/1523 16010KT
PROB40
TEMPO 1614/1618 16015G25KT



MetMap, La meteo Aeronautica in un colpo d'occhio ! - Copyright ORBIFLY Dicembre 2007 - Disclaimer

ORBIFLY MET'MAP TEAM :

Programmazione e sviluppo : Alexandra Zaïnal
Concezione : Baudouin d'Aumeries
Aiuto per la programmazione : Marc-Olivier Méhu
Supporto tecnico e logistico : Manuel Goepfert
Aiuto per la traduzione : Arnaldo La Scala

Contatto : metmap@orbifly.com




FONTI E CREDITI :

   NOAA